Terminal Aerodrome Forecast
Issued by NWS

Home | Current Version | Previous Version | Text Only | Print | Product List | Glossary On
Versions: 1 2 3 4 5 6 7 8 9 10 11 12 13 14 15 16 17
000
FTUS44 KLIX 020520
TAFHDC
TAF
KHDC 020520Z 0206/0306 00000KT P6SM BKN150
     FM021200 00000KT P6SM BKN015
     FM021500 12006KT P6SM VCTS BKN025CB
     FM021600 15010G20KT 3SM TSRA BKN020CB OVC150
     FM021800 22005KT P6SM -SHRA SCT050 OVC150
     FM030100 30004KT P6SM -RA OVC150=

USA.gov is the U.S. government's official web portal to all federal, state and local government web resources and services.